sensor_id;sensor_type;location;lat;lon;timestamp;P1;durP1;ratioP1;P2;durP2;ratioP2
43823;SDS011;29470;53.550;9.926;2022-07-06T00:02:43;7.38;;;1.63;;
43823;SDS011;29470;53.550;9.926;2022-07-06T00:07:46;6.38;;;2.05;;
43823;SDS011;29470;53.550;9.926;2022-07-06T00:12:49;2.40;;;1.00;;
43823;SDS011;29470;53.550;9.926;2022-07-06T00:17:53;2.42;;;1.17;;
43823;SDS011;29470;53.550;9.926;2022-07-06T00:22:56;4.80;;;1.50;;
43823;SDS011;29470;53.550;9.926;2022-07-06T00:27:59;6.10;;;1.50;;
43823;SDS011;29470;53.550;9.926;2022-07-06T00:33:04;4.13;;;1.40;;
43823;SDS011;29470;53.550;9.926;2022-07-06T00:38:07;5.78;;;1.77;;
43823;SDS011;29470;53.550;9.926;2022-07-06T00:43:09;4.50;;;1.55;;
43823;SDS011;29470;53.550;9.926;2022-07-06T00:48:14;5.13;;;1.55;;
43823;SDS011;29470;53.550;9.926;2022-07-06T00:53:17;4.03;;;1.30;;
43823;SDS011;29470;53.550;9.926;2022-07-06T00:58:20;4.97;;;1.65;;
43823;SDS011;29470;53.550;9.926;2022-07-06T01:03:25;2.38;;;1.27;;
43823;SDS011;29470;53.550;9.926;2022-07-06T01:08:28;4.28;;;1.45;;
43823;SDS011;29470;53.550;9.926;2022-07-06T01:13:32;2.78;;;1.20;;
43823;SDS011;29470;53.550;9.926;2022-07-06T01:18:37;2.72;;;1.20;;
43823;SDS011;29470;53.550;9.926;2022-07-06T01:23:43;5.22;;;1.70;;
43823;SDS011;29470;53.550;9.926;2022-07-06T01:28:48;3.95;;;1.45;;
43823;SDS011;29470;53.550;9.926;2022-07-06T01:33:54;5.80;;;1.70;;
43823;SDS011;29470;53.550;9.926;2022-07-06T01:39:00;6.80;;;1.60;;
43823;SDS011;29470;53.550;9.926;2022-07-06T01:44:04;5.63;;;1.60;;
43823;SDS011;29470;53.550;9.926;2022-07-06T01:49:06;4.35;;;1.58;;
43823;SDS011;29470;53.550;9.926;2022-07-06T01:54:11;5.57;;;1.58;;
43823;SDS011;29470;53.550;9.926;2022-07-06T01:59:15;4.47;;;1.60;;
43823;SDS011;29470;53.550;9.926;2022-07-06T02:04:18;4.07;;;1.70;;
43823;SDS011;29470;53.550;9.926;2022-07-06T02:09:22;4.82;;;1.60;;
43823;SDS011;29470;53.550;9.926;2022-07-06T02:14:25;7.97;;;1.85;;
43823;SDS011;29470;53.550;9.926;2022-07-06T02:19:28;4.00;;;1.60;;
43823;SDS011;29470;53.550;9.926;2022-07-06T02:24:32;5.90;;;1.83;;
43823;SDS011;29470;53.550;9.926;2022-07-06T02:29:35;4.88;;;1.52;;
43823;SDS011;29470;53.550;9.926;2022-07-06T02:34:40;6.50;;;1.92;;
43823;SDS011;29470;53.550;9.926;2022-07-06T02:39:44;4.70;;;1.60;;
43823;SDS011;29470;53.550;9.926;2022-07-06T02:44:47;8.15;;;1.55;;
43823;SDS011;29470;53.550;9.926;2022-07-06T02:49:50;6.65;;;1.70;;
43823;SDS011;29470;53.550;9.926;2022-07-06T02:54:56;4.85;;;1.45;;
43823;SDS011;29470;53.550;9.926;2022-07-06T03:00:00;6.05;;;1.92;;
43823;SDS011;29470;53.550;9.926;2022-07-06T03:05:05;8.55;;;1.63;;
43823;SDS011;29470;53.550;9.926;2022-07-06T03:10:10;3.50;;;1.55;;
43823;SDS011;29470;53.550;9.926;2022-07-06T03:15:13;4.45;;;1.52;;
43823;SDS011;29470;53.550;9.926;2022-07-06T03:20:19;4.47;;;1.83;;
43823;SDS011;29470;53.550;9.926;2022-07-06T03:25:23;13.27;;;4.47;;
43823;SDS011;29470;53.550;9.926;2022-07-06T03:30:27;15.77;;;6.65;;
43823;SDS011;29470;53.550;9.926;2022-07-06T03:35:32;16.73;;;6.50;;
43823;SDS011;29470;53.550;9.926;2022-07-06T03:40:38;11.32;;;3.53;;
43823;SDS011;29470;53.550;9.926;2022-07-06T03:45:41;8.57;;;2.20;;
43823;SDS011;29470;53.550;9.926;2022-07-06T03:50:44;4.75;;;1.70;;
43823;SDS011;29470;53.550;9.926;2022-07-06T03:55:49;4.55;;;1.70;;
43823;SDS011;29470;53.550;9.926;2022-07-06T04:01:06;2.97;;;1.42;;
43823;SDS011;29470;53.550;9.926;2022-07-06T04:06:09;4.07;;;1.60;;
43823;SDS011;29470;53.550;9.926;2022-07-06T04:11:14;4.20;;;1.30;;
43823;SDS011;29470;53.550;9.926;2022-07-06T04:16:17;3.90;;;1.52;;
43823;SDS011;29470;53.550;9.926;2022-07-06T04:21:20;5.13;;;1.40;;
43823;SDS011;29470;53.550;9.926;2022-07-06T04:26:25;2.17;;;1.60;;
43823;SDS011;29470;53.550;9.926;2022-07-06T04:31:31;5.80;;;1.65;;
43823;SDS011;29470;53.550;9.926;2022-07-06T04:36:34;4.20;;;1.40;;
43823;SDS011;29470;53.550;9.926;2022-07-06T04:41:39;6.38;;;1.77;;
43823;SDS011;29470;53.550;9.926;2022-07-06T04:46:42;2.55;;;1.10;;
43823;SDS011;29470;53.550;9.926;2022-07-06T04:51:45;4.65;;;1.67;;
43823;SDS011;29470;53.550;9.926;2022-07-06T04:56:50;4.47;;;1.30;;
43823;SDS011;29470;53.550;9.926;2022-07-06T05:01:53;2.55;;;1.30;;
43823;SDS011;29470;53.550;9.926;2022-07-06T05:06:56;3.72;;;1.27;;
43823;SDS011;29470;53.550;9.926;2022-07-06T05:12:02;2.60;;;1.35;;
43823;SDS011;29470;53.550;9.926;2022-07-06T05:17:05;5.93;;;1.70;;
43823;SDS011;29470;53.550;9.926;2022-07-06T05:22:08;4.20;;;1.60;;
43823;SDS011;29470;53.550;9.926;2022-07-06T05:27:13;5.78;;;1.65;;
43823;SDS011;29470;53.550;9.926;2022-07-06T05:32:16;4.68;;;1.50;;
43823;SDS011;29470;53.550;9.926;2022-07-06T05:37:19;3.05;;;1.35;;
43823;SDS011;29470;53.550;9.926;2022-07-06T05:42:24;3.33;;;1.20;;
43823;SDS011;29470;53.550;9.926;2022-07-06T05:47:27;6.50;;;1.92;;
43823;SDS011;29470;53.550;9.926;2022-07-06T05:52:55;4.65;;;1.88;;
43823;SDS011;29470;53.550;9.926;2022-07-06T05:58:01;6.22;;;1.52;;
43823;SDS011;29470;53.550;9.926;2022-07-06T06:03:06;5.00;;;1.67;;
43823;SDS011;29470;53.550;9.926;2022-07-06T06:08:09;4.30;;;1.10;;
43823;SDS011;29470;53.550;9.926;2022-07-06T06:13:14;4.85;;;1.10;;
43823;SDS011;29470;53.550;9.926;2022-07-06T06:18:17;5.47;;;1.40;;
43823;SDS011;29470;53.550;9.926;2022-07-06T06:23:21;7.30;;;1.30;;
43823;SDS011;29470;53.550;9.926;2022-07-06T06:28:25;5.18;;;1.40;;
43823;SDS011;29470;53.550;9.926;2022-07-06T06:33:28;4.13;;;1.20;;
43823;SDS011;29470;53.550;9.926;2022-07-06T06:38:31;2.72;;;1.25;;
43823;SDS011;29470;53.550;9.926;2022-07-06T06:43:36;1.90;;;0.88;;
43823;SDS011;29470;53.550;9.926;2022-07-06T06:48:45;4.28;;;1.50;;
43823;SDS011;29470;53.550;9.926;2022-07-06T06:53:48;4.00;;;1.00;;
43823;SDS011;29470;53.550;9.926;2022-07-06T06:58:52;4.15;;;1.20;;
43823;SDS011;29470;53.550;9.926;2022-07-06T07:04:15;3.55;;;1.00;;
43823;SDS011;29470;53.550;9.926;2022-07-06T07:09:19;4.07;;;1.42;;
43823;SDS011;29470;53.550;9.926;2022-07-06T07:14:23;4.88;;;1.20;;
43823;SDS011;29470;53.550;9.926;2022-07-06T07:19:26;4.93;;;1.17;;
43823;SDS011;29470;53.550;9.926;2022-07-06T07:24:28;4.75;;;1.10;;
43823;SDS011;29470;53.550;9.926;2022-07-06T07:29:33;4.22;;;1.05;;
43823;SDS011;29470;53.550;9.926;2022-07-06T07:34:35;3.33;;;1.00;;
43823;SDS011;29470;53.550;9.926;2022-07-06T07:39:38;3.53;;;0.90;;
43823;SDS011;29470;53.550;9.926;2022-07-06T07:44:42;2.83;;;1.00;;
43823;SDS011;29470;53.550;9.926;2022-07-06T07:49:45;4.68;;;1.10;;
43823;SDS011;29470;53.550;9.926;2022-07-06T07:54:48;5.05;;;1.10;;
43823;SDS011;29470;53.550;9.926;2022-07-06T08:00:13;3.03;;;0.80;;
43823;SDS011;29470;53.550;9.926;2022-07-06T08:05:16;1.92;;;0.60;;
43823;SDS011;29470;53.550;9.926;2022-07-06T08:10:20;3.40;;;1.30;;
43823;SDS011;29470;53.550;9.926;2022-07-06T08:15:24;3.03;;;0.90;;
43823;SDS011;29470;53.550;9.926;2022-07-06T08:20:27;3.58;;;0.90;;
43823;SDS011;29470;53.550;9.926;2022-07-06T08:25:30;4.18;;;1.35;;
43823;SDS011;29470;53.550;9.926;2022-07-06T08:30:35;6.18;;;2.80;;
43823;SDS011;29470;53.550;9.926;2022-07-06T08:35:38;2.78;;;1.15;;
43823;SDS011;29470;53.550;9.926;2022-07-06T08:40:41;4.25;;;1.20;;
43823;SDS011;29470;53.550;9.926;2022-07-06T08:45:50;2.45;;;1.00;;
43823;SDS011;29470;53.550;9.926;2022-07-06T08:50:56;4.18;;;0.85;;
43823;SDS011;29470;53.550;9.926;2022-07-06T08:56:00;3.00;;;0.90;;
43823;SDS011;29470;53.550;9.926;2022-07-06T09:01:05;6.38;;;1.30;;
43823;SDS011;29470;53.550;9.926;2022-07-06T09:06:08;1.77;;;0.80;;
43823;SDS011;29470;53.550;9.926;2022-07-06T09:11:12;4.35;;;1.42;;
43823;SDS011;29470;53.550;9.926;2022-07-06T09:16:17;20.67;;;12.30;;
43823;SDS011;29470;53.550;9.926;2022-07-06T09:21:39;4.13;;;1.85;;
43823;SDS011;29470;53.550;9.926;2022-07-06T09:26:43;16.05;;;3.97;;
43823;SDS011;29470;53.550;9.926;2022-07-06T09:31:56;1.58;;;0.80;;
43823;SDS011;29470;53.550;9.926;2022-07-06T09:37:00;2.42;;;0.82;;
43823;SDS011;29470;53.550;9.926;2022-07-06T09:42:05;6.80;;;1.15;;
43823;SDS011;29470;53.550;9.926;2022-07-06T09:47:11;4.97;;;1.33;;
43823;SDS011;29470;53.550;9.926;2022-07-06T09:52:15;4.20;;;0.88;;
43823;SDS011;29470;53.550;9.926;2022-07-06T09:57:18;1.80;;;0.90;;
43823;SDS011;29470;53.550;9.926;2022-07-06T10:02:24;2.90;;;0.90;;
43823;SDS011;29470;53.550;9.926;2022-07-06T10:07:29;6.30;;;1.50;;
43823;SDS011;29470;53.550;9.926;2022-07-06T10:12:33;2.53;;;0.98;;
43823;SDS011;29470;53.550;9.926;2022-07-06T10:17:38;5.32;;;1.20;;
43823;SDS011;29470;53.550;9.926;2022-07-06T10:22:43;2.08;;;0.70;;
43823;SDS011;29470;53.550;9.926;2022-07-06T10:27:47;5.03;;;1.17;;
43823;SDS011;29470;53.550;9.926;2022-07-06T10:32:51;3.80;;;1.20;;
43823;SDS011;29470;53.550;9.926;2022-07-06T10:38:03;3.97;;;1.10;;
43823;SDS011;29470;53.550;9.926;2022-07-06T10:43:08;2.08;;;0.50;;
43823;SDS011;29470;53.550;9.926;2022-07-06T10:48:19;4.68;;;0.80;;
43823;SDS011;29470;53.550;9.926;2022-07-06T10:53:24;2.90;;;0.90;;
43823;SDS011;29470;53.550;9.926;2022-07-06T10:58:35;3.08;;;0.95;;
43823;SDS011;29470;53.550;9.926;2022-07-06T11:04:06;9.23;;;4.22;;
43823;SDS011;29470;53.550;9.926;2022-07-06T11:09:11;11.68;;;5.78;;
43823;SDS011;29470;53.550;9.926;2022-07-06T11:14:16;2.88;;;1.08;;
43823;SDS011;29470;53.550;9.926;2022-07-06T11:19:22;5.10;;;1.08;;
43823;SDS011;29470;53.550;9.926;2022-07-06T11:24:27;3.20;;;0.93;;
43823;SDS011;29470;53.550;9.926;2022-07-06T11:29:33;34.72;;;2.58;;
43823;SDS011;29470;53.550;9.926;2022-07-06T11:34:40;18.77;;;1.95;;
43823;SDS011;29470;53.550;9.926;2022-07-06T11:39:44;6.68;;;0.98;;
43823;SDS011;29470;53.550;9.926;2022-07-06T11:44:49;2.13;;;0.90;;
43823;SDS011;29470;53.550;9.926;2022-07-06T11:49:53;4.40;;;0.90;;
43823;SDS011;29470;53.550;9.926;2022-07-06T11:54:57;2.58;;;0.65;;
43823;SDS011;29470;53.550;9.926;2022-07-06T12:00:00;2.85;;;0.95;;
43823;SDS011;29470;53.550;9.926;2022-07-06T12:05:14;2.60;;;0.82;;
43823;SDS011;29470;53.550;9.926;2022-07-06T12:10:31;5.88;;;1.92;;
43823;SDS011;29470;53.550;9.926;2022-07-06T12:15:36;2.60;;;0.70;;
43823;SDS011;29470;53.550;9.926;2022-07-06T12:20:40;13.65;;;1.65;;
43823;SDS011;29470;53.550;9.926;2022-07-06T12:25:43;4.63;;;1.02;;
43823;SDS011;29470;53.550;9.926;2022-07-06T12:30:46;6.22;;;1.10;;
43823;SDS011;29470;53.550;9.926;2022-07-06T12:35:50;1.48;;;0.60;;
43823;SDS011;29470;53.550;9.926;2022-07-06T12:40:53;2.03;;;0.73;;
43823;SDS011;29470;53.550;9.926;2022-07-06T12:45:56;3.05;;;0.88;;
43823;SDS011;29470;53.550;9.926;2022-07-06T12:51:00;6.80;;;1.90;;
43823;SDS011;29470;53.550;9.926;2022-07-06T12:56:09;86.40;;;8.95;;
43823;SDS011;29470;53.550;9.926;2022-07-06T13:01:14;9.88;;;1.40;;
43823;SDS011;29470;53.550;9.926;2022-07-06T13:06:27;3.00;;;0.50;;
43823;SDS011;29470;53.550;9.926;2022-07-06T13:11:31;3.80;;;0.60;;
43823;SDS011;29470;53.550;9.926;2022-07-06T13:16:34;1.35;;;0.50;;
43823;SDS011;29470;53.550;9.926;2022-07-06T13:21:39;2.63;;;0.50;;
43823;SDS011;29470;53.550;9.926;2022-07-06T13:26:42;1.40;;;0.50;;
43823;SDS011;29470;53.550;9.926;2022-07-06T13:31:45;2.58;;;0.50;;
43823;SDS011;29470;53.550;9.926;2022-07-06T13:36:50;2.35;;;0.43;;
43823;SDS011;29470;53.550;9.926;2022-07-06T13:41:53;2.70;;;0.50;;
43823;SDS011;29470;53.550;9.926;2022-07-06T13:46:56;3.53;;;0.60;;
43823;SDS011;29470;53.550;9.926;2022-07-06T13:52:00;1.55;;;0.50;;
43823;SDS011;29470;53.550;9.926;2022-07-06T13:57:05;2.58;;;0.43;;
43823;SDS011;29470;53.550;9.926;2022-07-06T14:02:08;3.17;;;0.75;;
43823;SDS011;29470;53.550;9.926;2022-07-06T14:07:13;1.83;;;0.95;;
43823;SDS011;29470;53.550;9.926;2022-07-06T14:12:21;3.25;;;1.10;;
43823;SDS011;29470;53.550;9.926;2022-07-06T14:17:26;2.30;;;1.20;;
43823;SDS011;29470;53.550;9.926;2022-07-06T14:22:30;2.90;;;0.90;;
43823;SDS011;29470;53.550;9.926;2022-07-06T14:27:33;3.00;;;0.52;;
43823;SDS011;29470;53.550;9.926;2022-07-06T14:32:36;3.88;;;0.82;;
43823;SDS011;29470;53.550;9.926;2022-07-06T14:37:40;2.08;;;0.40;;
43823;SDS011;29470;53.550;9.926;2022-07-06T14:42:43;2.70;;;0.47;;
43823;SDS011;29470;53.550;9.926;2022-07-06T14:47:46;2.22;;;0.30;;
43823;SDS011;29470;53.550;9.926;2022-07-06T14:52:50;1.88;;;0.30;;
43823;SDS011;29470;53.550;9.926;2022-07-06T14:57:54;1.98;;;0.47;;
43823;SDS011;29470;53.550;9.926;2022-07-06T15:02:57;2.03;;;0.60;;
43823;SDS011;29470;53.550;9.926;2022-07-06T15:08:01;3.72;;;0.73;;
43823;SDS011;29470;53.550;9.926;2022-07-06T15:13:04;2.70;;;0.65;;
43823;SDS011;29470;53.550;9.926;2022-07-06T15:18:07;2.72;;;0.47;;
43823;SDS011;29470;53.550;9.926;2022-07-06T15:23:12;3.75;;;0.73;;
43823;SDS011;29470;53.550;9.926;2022-07-06T15:28:14;1.98;;;0.68;;
43823;SDS011;29470;53.550;9.926;2022-07-06T15:33:17;3.50;;;0.68;;
43823;SDS011;29470;53.550;9.926;2022-07-06T15:38:22;4.05;;;0.70;;
43823;SDS011;29470;53.550;9.926;2022-07-06T15:43:25;5.03;;;1.00;;
43823;SDS011;29470;53.550;9.926;2022-07-06T15:48:31;1.77;;;0.70;;
43823;SDS011;29470;53.550;9.926;2022-07-06T15:53:36;1.80;;;0.70;;
43823;SDS011;29470;53.550;9.926;2022-07-06T15:58:40;2.40;;;0.60;;
43823;SDS011;29470;53.550;9.926;2022-07-06T16:03:43;5.20;;;0.90;;
43823;SDS011;29470;53.550;9.926;2022-07-06T16:08:47;2.53;;;0.73;;
43823;SDS011;29470;53.550;9.926;2022-07-06T16:13:50;2.42;;;0.90;;
43823;SDS011;29470;53.550;9.926;2022-07-06T16:18:57;3.63;;;0.80;;
43823;SDS011;29470;53.550;9.926;2022-07-06T16:24:01;5.38;;;1.20;;
43823;SDS011;29470;53.550;9.926;2022-07-06T16:29:04;2.67;;;0.70;;
43823;SDS011;29470;53.550;9.926;2022-07-06T16:34:07;2.95;;;1.08;;
43823;SDS011;29470;53.550;9.926;2022-07-06T16:39:11;2.33;;;0.93;;
43823;SDS011;29470;53.550;9.926;2022-07-06T16:44:14;2.63;;;1.00;;
43823;SDS011;29470;53.550;9.926;2022-07-06T16:49:17;4.97;;;1.10;;
43823;SDS011;29470;53.550;9.926;2022-07-06T16:54:21;4.13;;;1.30;;
43823;SDS011;29470;53.550;9.926;2022-07-06T16:59:24;3.75;;;1.50;;
43823;SDS011;29470;53.550;9.926;2022-07-06T17:04:27;3.58;;;1.50;;
43823;SDS011;29470;53.550;9.926;2022-07-06T17:09:31;3.10;;;1.27;;
43823;SDS011;29470;53.550;9.926;2022-07-06T17:14:34;4.80;;;1.20;;
43823;SDS011;29470;53.550;9.926;2022-07-06T17:19:37;4.05;;;1.00;;
43823;SDS011;29470;53.550;9.926;2022-07-06T17:24:42;3.13;;;1.35;;
43823;SDS011;29470;53.550;9.926;2022-07-06T17:29:44;2.60;;;1.00;;
43823;SDS011;29470;53.550;9.926;2022-07-06T17:34:47;4.07;;;1.63;;
43823;SDS011;29470;53.550;9.926;2022-07-06T17:39:51;3.45;;;1.00;;
43823;SDS011;29470;53.550;9.926;2022-07-06T17:44:54;4.65;;;1.30;;
43823;SDS011;29470;53.550;9.926;2022-07-06T17:49:57;3.45;;;1.13;;
43823;SDS011;29470;53.550;9.926;2022-07-06T17:55:02;3.38;;;1.20;;
43823;SDS011;29470;53.550;9.926;2022-07-06T18:00:05;3.33;;;1.70;;
43823;SDS011;29470;53.550;9.926;2022-07-06T18:05:10;3.38;;;1.30;;
43823;SDS011;29470;53.550;9.926;2022-07-06T18:10:15;5.38;;;1.80;;
43823;SDS011;29470;53.550;9.926;2022-07-06T18:15:17;4.22;;;1.92;;
43823;SDS011;29470;53.550;9.926;2022-07-06T18:20:20;4.00;;;1.40;;
43823;SDS011;29470;53.550;9.926;2022-07-06T18:25:25;4.25;;;1.20;;
43823;SDS011;29470;53.550;9.926;2022-07-06T18:30:28;5.18;;;1.10;;
43823;SDS011;29470;53.550;9.926;2022-07-06T18:35:31;4.85;;;1.17;;
43823;SDS011;29470;53.550;9.926;2022-07-06T18:40:35;5.32;;;1.30;;
43823;SDS011;29470;53.550;9.926;2022-07-06T18:45:38;5.15;;;1.73;;
43823;SDS011;29470;53.550;9.926;2022-07-06T18:50:41;3.03;;;1.30;;
43823;SDS011;29470;53.550;9.926;2022-07-06T18:55:47;3.80;;;1.02;;
43823;SDS011;29470;53.550;9.926;2022-07-06T19:00:50;3.10;;;1.25;;
43823;SDS011;29470;53.550;9.926;2022-07-06T19:05:53;5.93;;;1.40;;
43823;SDS011;29470;53.550;9.926;2022-07-06T19:10:58;6.80;;;1.60;;
43823;SDS011;29470;53.550;9.926;2022-07-06T19:16:01;5.70;;;1.50;;
43823;SDS011;29470;53.550;9.926;2022-07-06T19:21:04;5.45;;;1.10;;
43823;SDS011;29470;53.550;9.926;2022-07-06T19:26:08;2.97;;;1.13;;
43823;SDS011;29470;53.550;9.926;2022-07-06T19:31:11;3.10;;;1.05;;
43823;SDS011;29470;53.550;9.926;2022-07-06T19:36:14;3.80;;;1.63;;
43823;SDS011;29470;53.550;9.926;2022-07-06T19:41:19;5.05;;;2.13;;
43823;SDS011;29470;53.550;9.926;2022-07-06T19:46:23;4.75;;;1.88;;
43823;SDS011;29470;53.550;9.926;2022-07-06T19:51:26;4.32;;;1.85;;
43823;SDS011;29470;53.550;9.926;2022-07-06T19:56:31;3.60;;;1.73;;
43823;SDS011;29470;53.550;9.926;2022-07-06T20:01:37;7.28;;;1.83;;
43823;SDS011;29470;53.550;9.926;2022-07-06T20:06:41;5.05;;;1.98;;
43823;SDS011;29470;53.550;9.926;2022-07-06T20:11:45;4.70;;;2.10;;
43823;SDS011;29470;53.550;9.926;2022-07-06T20:16:48;3.97;;;1.80;;
43823;SDS011;29470;53.550;9.926;2022-07-06T20:21:53;3.35;;;2.28;;
43823;SDS011;29470;53.550;9.926;2022-07-06T20:26:58;4.93;;;2.60;;
43823;SDS011;29470;53.550;9.926;2022-07-06T20:32:02;3.60;;;1.67;;
43823;SDS011;29470;53.550;9.926;2022-07-06T20:37:05;5.15;;;1.80;;
43823;SDS011;29470;53.550;9.926;2022-07-06T20:42:09;3.40;;;2.10;;
43823;SDS011;29470;53.550;9.926;2022-07-06T20:47:12;3.80;;;1.92;;
43823;SDS011;29470;53.550;9.926;2022-07-06T20:52:15;2.70;;;1.30;;
43823;SDS011;29470;53.550;9.926;2022-07-06T20:57:19;5.65;;;2.10;;
43823;SDS011;29470;53.550;9.926;2022-07-06T21:02:22;4.43;;;1.40;;
43823;SDS011;29470;53.550;9.926;2022-07-06T21:07:25;3.35;;;1.45;;
43823;SDS011;29470;53.550;9.926;2022-07-06T21:12:30;3.55;;;1.90;;
43823;SDS011;29470;53.550;9.926;2022-07-06T21:17:33;4.38;;;1.80;;
43823;SDS011;29470;53.550;9.926;2022-07-06T21:22:36;3.53;;;1.75;;
43823;SDS011;29470;53.550;9.926;2022-07-06T21:27:40;3.50;;;1.55;;
43823;SDS011;29470;53.550;9.926;2022-07-06T21:32:43;3.58;;;1.70;;
43823;SDS011;29470;53.550;9.926;2022-07-06T21:37:47;3.63;;;1.90;;
43823;SDS011;29470;53.550;9.926;2022-07-06T21:42:51;4.15;;;2.20;;
43823;SDS011;29470;53.550;9.926;2022-07-06T21:47:54;4.57;;;2.50;;
43823;SDS011;29470;53.550;9.926;2022-07-06T21:52:57;3.53;;;2.22;;
43823;SDS011;29470;53.550;9.926;2022-07-06T21:58:01;5.65;;;2.50;;
43823;SDS011;29470;53.550;9.926;2022-07-06T22:03:05;4.97;;;2.60;;
43823;SDS011;29470;53.550;9.926;2022-07-06T22:08:08;6.18;;;2.92;;
43823;SDS011;29470;53.550;9.926;2022-07-06T22:13:12;5.70;;;3.00;;
43823;SDS011;29470;53.550;9.926;2022-07-06T22:18:30;4.25;;;3.30;;
43823;SDS011;29470;53.550;9.926;2022-07-06T22:23:33;6.85;;;3.70;;
43823;SDS011;29470;53.550;9.926;2022-07-06T22:28:37;4.75;;;3.55;;
43823;SDS011;29470;53.550;9.926;2022-07-06T22:33:40;5.55;;;3.92;;
43823;SDS011;29470;53.550;9.926;2022-07-06T22:38:44;6.28;;;4.00;;
43823;SDS011;29470;53.550;9.926;2022-07-06T22:43:48;5.57;;;4.28;;
43823;SDS011;29470;53.550;9.926;2022-07-06T22:48:50;6.90;;;4.38;;
43823;SDS011;29470;53.550;9.926;2022-07-06T22:53:54;6.63;;;5.07;;
43823;SDS011;29470;53.550;9.926;2022-07-06T22:58:58;6.78;;;5.43;;
43823;SDS011;29470;53.550;9.926;2022-07-06T23:04:01;8.98;;;6.20;;
43823;SDS011;29470;53.550;9.926;2022-07-06T23:09:04;8.88;;;6.40;;
43823;SDS011;29470;53.550;9.926;2022-07-06T23:14:08;7.90;;;6.38;;
43823;SDS011;29470;53.550;9.926;2022-07-06T23:19:11;9.15;;;6.30;;
43823;SDS011;29470;53.550;9.926;2022-07-06T23:24:14;8.50;;;6.78;;
43823;SDS011;29470;53.550;9.926;2022-07-06T23:29:18;8.70;;;6.28;;
43823;SDS011;29470;53.550;9.926;2022-07-06T23:34:21;8.40;;;5.95;;
43823;SDS011;29470;53.550;9.926;2022-07-06T23:39:23;7.88;;;5.65;;
43823;SDS011;29470;53.550;9.926;2022-07-06T23:44:29;8.07;;;6.00;;
43823;SDS011;29470;53.550;9.926;2022-07-06T23:49:34;8.88;;;6.10;;
43823;SDS011;29470;53.550;9.926;2022-07-06T23:54:37;8.13;;;6.30;;
43823;SDS011;29470;53.550;9.926;2022-07-06T23:59:41;7.38;;;5.80;;
